Time;durP1;ratioP1;P1;durP2;ratioP2;P2;SDS_P1;SDS_P2;PMS_P1;PMS_P2;Temp;Humidity;BMP_temperature;BMP_pressure;BME280_temperature;BME280_humidity;BME280_pressure;Samples;Min_cycle;Max_cycle;Signal;HPM_P1;HPM_P2
2022/12/17 13:08:07;;;;;;;1999.90;999.90;;;-3.10;99.90;;;;;;4977287;28;20027;-76
2022/12/17 13:10:33;;;;;;;1999.90;999.90;;;-3.10;99.90;;;;;;4976841;28;20039;-76
2022/12/17 13:13:10;;;;;;;1999.90;999.90;;;-3.10;99.90;;;;;;4977002;28;20046;-75
2022/12/17 13:15:41;;;;;;;1999.90;999.90;;;-3.10;99.90;;;;;;4976020;28;20035;-75
2022/12/17 13:18:33;;;;;;;1999.90;999.90;;;-3.00;99.90;;;;;;4976967;28;20036;-76
2022/12/17 13:21:02;;;;;;;1999.90;999.90;;;-3.10;99.90;;;;;;4975342;28;20131;-76
2022/12/17 13:23:30;;;;;;;1999.90;999.90;;;-3.10;99.90;;;;;;4975943;28;20070;-80
2022/12/17 13:26:14;;;;;;;1999.90;999.90;;;-3.10;99.90;;;;;;4975278;28;20039;-76
2022/12/17 13:28:40;;;;;;;1999.90;999.90;;;-3.10;99.90;;;;;;4975291;28;20114;-75
2022/12/17 13:31:16;;;;;;;1999.90;999.90;;;-3.10;99.90;;;;;;4976421;28;20039;-76
2022/12/17 13:33:49;;;;;;;1999.90;999.90;;;-3.10;99.90;;;;;;4976647;28;20037;-77
2022/12/17 13:36:29;;;;;;;1999.90;999.90;;;-3.10;99.90;;;;;;4976132;28;20035;-76
2022/12/17 13:39:01;;;;;;;1999.90;999.90;;;-3.10;99.90;;;;;;4976641;28;20038;-78
2022/12/17 13:41:32;;;;;;;1999.90;999.90;;;-3.10;99.90;;;;;;4975980;28;20039;-75
2022/12/17 13:44:23;;;;;;;1999.90;999.90;;;-3.10;99.90;;;;;;4976227;28;20036;-75
2022/12/17 13:46:53;;;;;;;1999.90;999.90;;;-3.10;99.90;;;;;;4976724;28;20480;-76
2022/12/17 13:49:28;;;;;;;1999.90;999.90;;;-3.00;99.90;;;;;;4974645;28;20485;-76
2022/12/17 13:52:15;;;;;;;1999.90;999.90;;;-3.00;99.90;;;;;;4975086;28;20040;-75
2022/12/17 13:54:40;;;;;;;1999.90;999.90;;;-3.10;99.90;;;;;;4976608;28;20031;-76
2022/12/17 13:57:16;;;;;;;1999.90;999.90;;;-3.00;99.90;;;;;;4975455;28;20035;-76
2022/12/17 13:59:53;;;;;;;1999.90;999.90;;;-3.10;99.90;;;;;;4974289;28;20067;-76
2022/12/17 14:02:37;;;;;;;1999.90;999.90;;;-3.10;99.90;;;;;;4976063;28;20031;-76
2022/12/17 14:05:05;;;;;;;1999.90;999.90;;;-3.10;99.90;;;;;;4976200;28;20039;-76
2022/12/17 14:07:33;;;;;;;1999.90;999.90;;;-3.10;99.90;;;;;;4975951;28;20130;-76
2022/12/17 14:10:01;;;;;;;1999.90;999.90;;;-3.10;99.90;;;;;;4975534;28;20045;-76
2022/12/17 14:12:28;;;;;;;1999.90;999.90;;;-3.20;99.90;;;;;;4980297;28;20055;-76
2022/12/17 14:15:02;;;;;;;1999.90;999.90;;;-3.20;99.90;;;;;;4974385;28;20504;-79
2022/12/17 14:17:39;;;;;;;1999.90;999.90;;;-3.20;99.90;;;;;;4976096;28;20039;-77
2022/12/17 14:20:29;;;;;;;1999.90;999.90;;;-3.30;99.90;;;;;;4979593;28;20069;-83
2022/12/17 14:22:59;;;;;;;1999.90;999.90;;;-3.40;99.90;;;;;;4981616;28;20038;-82
2022/12/17 14:25:35;;;;;;;1999.90;999.90;;;-3.40;99.90;;;;;;4981400;28;20027;-79
2022/12/17 14:28:23;;;;;;;1999.90;999.90;;;-3.60;99.90;;;;;;4980729;28;20760;-78
2022/12/17 14:30:50;;;;;;;1999.90;999.90;;;-3.60;99.90;;;;;;4979447;28;20046;-78
2022/12/17 14:34:00;;;;;;;1999.90;999.90;;;-3.70;99.90;;;;;;4976910;28;20075;-77
2022/12/17 14:36:27;;;;;;;1999.90;999.90;;;-3.80;99.90;;;;;;4974968;28;20047;-78
2022/12/17 14:38:58;;;;;;;1999.90;999.90;;;-3.80;99.90;;;;;;4976452;28;20423;-78
2022/12/17 14:44:19;;;;;;;1999.90;999.90;;;-4.00;99.90;;;;;;4971705;28;20039;-78
2022/12/17 14:46:45;;;;;;;1999.90;999.90;;;-4.10;99.90;;;;;;4978613;28;20139;-83
2022/12/17 14:49:18;;;;;;;1999.90;999.90;;;-4.20;99.90;;;;;;4976186;28;20126;-78
2022/12/17 14:51:44;;;;;;;1999.90;999.90;;;-4.20;99.90;;;;;;4975589;28;20039;-77
2022/12/17 14:54:31;;;;;;;1999.90;999.90;;;-4.30;99.90;;;;;;4975049;28;20035;-78
2022/12/17 14:56:58;;;;;;;1999.90;999.90;;;-4.40;99.90;;;;;;4974600;28;20050;-78
2022/12/17 14:59:35;;;;;;;1999.90;999.90;;;-4.50;99.90;;;;;;4973712;28;20389;-78
2022/12/17 15:02:24;;;;;;;1999.90;999.90;;;-4.50;99.90;;;;;;4975630;28;20467;-77
2022/12/17 15:04:52;;;;;;;1999.90;999.90;;;-4.60;99.90;;;;;;4974092;28;20042;-77
2022/12/17 15:07:26;;;;;;;1999.90;999.90;;;-4.70;99.90;;;;;;4974128;28;20042;-78
2022/12/17 15:09:53;;;;;;;1999.90;999.90;;;-4.80;99.90;;;;;;4975428;28;20039;-78
2022/12/17 15:12:20;;;;;;;1999.90;999.90;;;-4.80;99.90;;;;;;4973608;28;20121;-78
2022/12/17 15:14:46;;;;;;;1999.90;999.90;;;-4.90;99.90;;;;;;4974340;28;20032;-77
2022/12/17 15:17:12;;;;;;;1999.90;999.90;;;-4.90;99.90;;;;;;4974855;28;20046;-77
2022/12/17 15:19:37;;;;;;;1999.90;999.90;;;-5.00;99.90;;;;;;4975026;28;20043;-77
2022/12/17 15:22:03;;;;;;;1999.90;999.90;;;-5.10;99.90;;;;;;4973564;28;20032;-78
2022/12/17 15:24:29;;;;;;;1999.90;999.90;;;-5.20;99.90;;;;;;4975138;28;20532;-77
2022/12/17 15:26:54;;;;;;;1999.90;999.90;;;-5.30;99.90;;;;;;4976173;28;20094;-77
2022/12/17 15:29:20;;;;;;;1999.90;999.90;;;-5.30;99.90;;;;;;4978841;28;20497;-77
2022/12/17 15:31:45;;;;;;;1999.90;999.90;;;-5.40;99.90;;;;;;4979636;28;20056;-77
2022/12/17 15:34:11;;;;;;;1999.90;999.90;;;-5.40;99.90;;;;;;4979443;28;20035;-77
2022/12/17 15:36:37;;;;;;;1999.90;999.90;;;-5.50;99.90;;;;;;4976912;28;20035;-77
2022/12/17 15:39:05;;;;;;;1999.90;999.90;;;-5.50;99.90;;;;;;4978599;28;20044;-77
2022/12/17 15:44:14;;;;;;;1999.90;999.90;;;-5.80;99.90;;;;;;4979042;28;20895;-77
2022/12/17 15:46:40;;;;;;;1999.90;999.90;;;-5.90;99.90;;;;;;4978299;28;20039;-77
2022/12/17 15:49:05;;;;;;;1999.90;999.90;;;-6.00;99.90;;;;;;4979135;28;20035;-77
2022/12/17 15:51:31;;;;;;;1999.90;999.90;;;-6.00;99.90;;;;;;4977376;28;20043;-77
2022/12/17 15:53:56;;;;;;;1999.90;999.90;;;-6.10;99.90;;;;;;4979376;28;20486;-76
2022/12/17 15:56:24;;;;;;;1999.90;999.90;;;-6.10;99.90;;;;;;4977984;28;20493;-77
2022/12/17 15:58:50;;;;;;;1999.90;999.90;;;-6.10;99.90;;;;;;4977819;28;20032;-76
2022/12/17 16:01:17;;;;;;;1999.90;999.90;;;-6.20;99.90;;;;;;4977406;28;20035;-76
2022/12/17 16:03:43;;;;;;;1999.90;999.90;;;-6.20;99.90;;;;;;4978062;28;20031;-76
2022/12/17 16:06:09;;;;;;;1999.90;999.90;;;-6.20;99.90;;;;;;4977728;28;20050;-76
2022/12/17 16:08:38;;;;;;;1999.90;999.90;;;-6.10;99.90;;;;;;4978003;28;20027;-76
2022/12/17 16:11:08;;;;;;;1999.90;999.90;;;-6.20;99.90;;;;;;4977769;28;20507;-77
2022/12/17 16:13:34;;;;;;;1999.90;999.90;;;-6.40;99.90;;;;;;4976167;28;20042;-75
2022/12/17 16:16:00;;;;;;;1999.90;999.90;;;-6.40;99.90;;;;;;4976165;28;20048;-77
2022/12/17 16:18:25;;;;;;;1999.90;999.90;;;-6.50;99.90;;;;;;4980257;28;20042;-76
2022/12/17 16:20:51;;;;;;;1999.90;999.90;;;-6.70;99.90;;;;;;4981135;28;20503;-77
2022/12/17 16:23:16;;;;;;;1999.90;999.90;;;-6.60;99.90;;;;;;4980944;28;20034;-80
2022/12/17 16:25:42;;;;;;;1999.90;999.90;;;-6.60;99.90;;;;;;4979839;28;20039;-79
2022/12/17 16:28:08;;;;;;;1999.90;999.90;;;-6.60;99.90;;;;;;4979153;28;20115;-80
2022/12/17 16:30:33;;;;;;;1999.90;999.90;;;-6.50;99.90;;;;;;4979541;28;20039;-82
2022/12/17 16:32:59;;;;;;;1999.90;999.90;;;-6.50;99.90;;;;;;4980612;28;20047;-78
2022/12/17 16:35:27;;;;;;;1999.90;999.90;;;-6.30;99.90;;;;;;4980341;28;20441;-82
2022/12/17 16:37:53;;;;;;;1999.90;999.90;;;-6.40;99.90;;;;;;4979526;28;20031;-79
2022/12/17 16:40:18;;;;;;;1999.90;999.90;;;-6.50;99.90;;;;;;4979544;28;20046;-78
2022/12/17 16:42:44;;;;;;;1999.90;999.90;;;-6.50;99.90;;;;;;4982027;28;20111;-83
2022/12/17 16:45:09;;;;;;;1999.90;999.90;;;-6.60;99.90;;;;;;4979231;28;20130;-85
2022/12/17 16:47:35;;;;;;;1999.90;999.90;;;-6.60;99.90;;;;;;4979114;28;20035;-80
2022/12/17 16:50:01;;;;;;;1999.90;999.90;;;-6.60;99.90;;;;;;4980744;28;20047;-80
2022/12/17 16:52:26;;;;;;;1999.90;999.90;;;-6.60;99.90;;;;;;4978977;28;20034;-83
2022/12/17 16:54:52;;;;;;;1999.90;999.90;;;-6.50;99.90;;;;;;4978036;28;20039;-78
2022/12/17 16:57:17;;;;;;;1999.90;999.90;;;-6.50;99.90;;;;;;4978446;28;20051;-80
2022/12/17 16:59:43;;;;;;;1999.90;999.90;;;-6.50;99.90;;;;;;4978899;28;20042;-80
2022/12/17 17:02:13;;;;;;;1999.90;999.90;;;-6.50;99.90;;;;;;4979508;28;20082;-80
2022/12/17 17:04:39;;;;;;;1999.90;999.90;;;-6.40;99.90;;;;;;4982576;28;20031;-80
2022/12/17 17:07:04;;;;;;;1999.90;999.90;;;-6.50;99.90;;;;;;4979763;28;20042;-79
2022/12/17 17:09:30;;;;;;;1999.90;999.90;;;-6.40;99.90;;;;;;4980382;28;20058;-80
2022/12/17 17:11:57;;;;;;;1999.90;999.90;;;-6.50;99.90;;;;;;4979623;28;20111;-80
2022/12/17 17:14:24;;;;;;;1999.90;999.90;;;-6.60;99.90;;;;;;4977810;28;20040;-81
2022/12/17 17:16:50;;;;;;;1999.90;999.90;;;-6.60;99.90;;;;;;5013690;22;20070;-79
2022/12/17 17:19:15;;;;;;;1999.90;999.90;;;-6.50;99.90;;;;;;4970648;28;20095;-80
2022/12/17 17:21:47;;;;;;;1999.90;999.90;;;-6.60;99.90;;;;;;4971005;28;20099;-80
2022/12/17 17:24:14;;;;;;;1999.90;999.90;;;-6.50;99.90;;;;;;4972350;28;20048;-80
2022/12/17 17:26:40;;;;;;;1999.90;999.90;;;-6.50;99.90;;;;;;4970537;28;20044;-80
2022/12/17 17:29:06;;;;;;;1999.90;999.90;;;-6.50;99.90;;;;;;4970529;28;20032;-78
2022/12/17 17:31:33;;;;;;;1999.90;999.90;;;-6.60;99.90;;;;;;4968644;28;20532;-79
2022/12/17 17:33:59;;;;;;;1999.90;999.90;;;-6.60;99.90;;;;;;4986833;28;20038;-79
2022/12/17 17:36:29;;;;;;;1999.90;999.90;;;-6.70;99.90;;;;;;4988117;28;20022;-79
2022/12/17 17:38:57;;;;;;;1999.90;999.90;;;-6.70;99.90;;;;;;4974035;28;20508;-80
2022/12/17 17:41:28;;;;;;;1999.90;999.90;;;-6.70;99.90;;;;;;4964001;28;20056;-80
2022/12/17 17:43:57;;;;;;;1999.90;999.90;;;-6.70;99.90;;;;;;4961591;28;20140;-80
2022/12/17 17:46:23;;;;;;;1999.90;999.90;;;-6.70;99.90;;;;;;4960516;28;20489;-79
2022/12/17 17:48:49;;;;;;;1999.90;999.90;;;-6.80;99.90;;;;;;4959800;28;20042;-80
2022/12/17 17:51:17;;;;;;;1999.90;999.90;;;-6.70;99.90;;;;;;4959599;28;20040;-79
2022/12/17 17:53:44;;;;;;;1999.90;999.90;;;-6.90;99.90;;;;;;4959256;28;20118;-80
2022/12/17 17:56:15;;;;;;;1999.90;999.90;;;-6.90;99.90;;;;;;4967704;28;20039;-81
2022/12/17 17:58:49;;;;;;;1999.90;999.90;;;-6.80;99.90;;;;;;4961134;28;20043;-79
2022/12/17 18:01:19;;;;;;;1999.90;999.90;;;-6.80;99.90;;;;;;4959494;28;20429;-79
2022/12/17 18:03:45;;;;;;;1999.90;999.90;;;-6.80;99.90;;;;;;4962279;28;20043;-78
2022/12/17 18:06:29;;;;;;;1999.90;999.90;;;-6.90;99.90;;;;;;4966243;28;20028;-77
2022/12/17 18:08:56;;;;;;;1999.90;999.90;;;-6.80;99.90;;;;;;4961410;28;20046;-78
2022/12/17 18:11:23;;;;;;;1999.90;999.90;;;-6.80;99.90;;;;;;4960631;28;20044;-79
2022/12/17 18:13:55;;;;;;;1999.90;999.90;;;-6.80;99.90;;;;;;4956955;28;20035;-77
2022/12/17 18:16:25;;;;;;;1999.90;999.90;;;-6.80;99.90;;;;;;4961339;28;20042;-78
2022/12/17 18:18:53;;;;;;;1999.90;999.90;;;-6.80;99.90;;;;;;4959665;28;20036;-78
2022/12/17 18:21:19;;;;;;;1999.90;999.90;;;-6.90;99.90;;;;;;4956327;28;20501;-77
2022/12/17 18:23:46;;;;;;;1999.90;999.90;;;-7.00;99.90;;;;;;4957318;28;20486;-77
2022/12/17 18:26:18;;;;;;;1999.90;999.90;;;-6.90;99.90;;;;;;4957057;28;20051;-77
2022/12/17 18:28:46;;;;;;;1999.90;999.90;;;-7.10;99.90;;;;;;4956572;28;20106;-78
2022/12/17 18:31:20;;;;;;;1999.90;999.90;;;-6.90;99.90;;;;;;4957453;28;20046;-77
2022/12/17 18:33:48;;;;;;;1999.90;999.90;;;-6.80;99.90;;;;;;4957475;28;20036;-77
2022/12/17 18:36:20;;;;;;;1999.90;999.90;;;-6.90;99.90;;;;;;4957450;28;20111;-77
2022/12/17 18:38:46;;;;;;;1999.90;999.90;;;-6.90;99.90;;;;;;4958421;28;20103;-78
2022/12/17 18:44:05;;;;;;;1999.90;999.90;;;-7.00;99.90;;;;;;4954037;28;20036;-78
2022/12/17 18:46:32;;;;;;;1999.90;999.90;;;-6.90;99.90;;;;;;4957783;28;20031;-78
2022/12/17 18:49:00;;;;;;;1999.90;999.90;;;-7.00;99.90;;;;;;4957970;28;20510;-78
2022/12/17 18:51:26;;;;;;;1999.90;999.90;;;-6.90;99.90;;;;;;4957909;28;20511;-78
2022/12/17 18:53:55;;;;;;;1999.90;999.90;;;-7.00;99.90;;;;;;4957139;28;20095;-78
2022/12/17 18:56:20;;;;;;;1999.90;999.90;;;-7.00;99.90;;;;;;4957222;28;20108;-78
2022/12/17 18:58:46;;;;;;;1999.90;999.90;;;-7.00;99.90;;;;;;4957866;28;20092;-80
2022/12/17 19:01:24;;;;;;;1999.90;999.90;;;-7.00;99.90;;;;;;4955878;28;20043;-79
2022/12/17 19:03:50;;;;;;;1999.90;999.90;;;-7.00;99.90;;;;;;4956951;28;20036;-79
2022/12/17 19:06:17;;;;;;;1999.90;999.90;;;-6.90;99.90;;;;;;4954620;28;20027;-79
2022/12/17 19:08:42;;;;;;;1999.90;999.90;;;-7.00;99.90;;;;;;4955094;28;20416;-79
2022/12/17 19:11:09;;;;;;;1999.90;999.90;;;-7.10;99.90;;;;;;4955700;28;20046;-79
2022/12/17 19:13:35;;;;;;;1999.90;999.90;;;-7.10;99.90;;;;;;4958028;28;20040;-81
2022/12/17 19:16:21;;;;;;;1999.90;999.90;;;-7.20;99.90;;;;;;4958923;28;20096;-78
2022/12/17 19:18:56;;;;;;;1999.90;999.90;;;-7.10;99.90;;;;;;4956375;28;20032;-79
2022/12/17 19:21:22;;;;;;;1999.90;999.90;;;-7.20;99.90;;;;;;4955750;28;20040;-78
2022/12/17 19:23:49;;;;;;;1999.90;999.90;;;-7.20;99.90;;;;;;4954369;28;20453;-78
2022/12/17 19:26:17;;;;;;;1999.90;999.90;;;-7.20;99.90;;;;;;4954070;28;20098;-78
2022/12/17 19:28:45;;;;;;;1999.90;999.90;;;-7.20;99.90;;;;;;4965288;28;20031;-78
2022/12/17 19:31:12;;;;;;;1999.90;999.90;;;-7.20;99.90;;;;;;4955550;28;20095;-81
2022/12/17 19:33:38;;;;;;;1999.90;999.90;;;-7.30;99.90;;;;;;4956840;28;20040;-78
2022/12/17 19:36:07;;;;;;;1999.90;999.90;;;-7.20;99.90;;;;;;4955853;28;20564;-77
2022/12/17 19:38:33;;;;;;;1999.90;999.90;;;-7.20;99.90;;;;;;4955568;28;20043;-78
2022/12/17 19:41:04;;;;;;;1999.90;999.90;;;-7.40;99.90;;;;;;4956707;28;20040;-77
2022/12/17 19:43:29;;;;;;;1999.90;999.90;;;-7.40;99.90;;;;;;4954632;28;20119;-77
2022/12/17 19:46:07;;;;;;;1999.90;999.90;;;-7.30;99.90;;;;;;4955288;28;20110;-77
2022/12/17 19:48:35;;;;;;;1999.90;999.90;;;-7.20;99.90;;;;;;4954662;28;20032;-77
2022/12/17 19:51:03;;;;;;;1999.90;999.90;;;-7.20;99.90;;;;;;4955703;28;20039;-77
2022/12/17 19:53:30;;;;;;;1999.90;999.90;;;-7.30;99.90;;;;;;4954434;28;20043;-77
2022/12/17 19:56:06;;;;;;;1999.90;999.90;;;-7.20;99.90;;;;;;4956808;28;20031;-77
2022/12/17 19:58:32;;;;;;;1999.90;999.90;;;-7.30;99.90;;;;;;4955881;28;20578;-77
2022/12/17 20:01:11;;;;;;;1999.90;999.90;;;-7.50;99.90;;;;;;4954415;28;20052;-77
2022/12/17 20:03:38;;;;;;;1999.90;999.90;;;-7.40;99.90;;;;;;4954888;28;20036;-77
2022/12/17 20:06:05;;;;;;;1999.90;999.90;;;-7.40;99.90;;;;;;4957079;28;20040;-77
2022/12/17 20:08:32;;;;;;;1999.90;999.90;;;-7.50;99.90;;;;;;4957957;28;20036;-77
2022/12/17 20:11:00;;;;;;;1999.90;999.90;;;-7.60;99.90;;;;;;4955919;28;20834;-77
2022/12/17 20:13:26;;;;;;;1999.90;999.90;;;-7.60;99.90;;;;;;4958226;28;20123;-77
2022/12/17 20:16:02;;;;;;;1999.90;999.90;;;-7.60;99.90;;;;;;4957389;28;20124;-77
2022/12/17 20:18:28;;;;;;;1999.90;999.90;;;-7.60;99.90;;;;;;4960046;28;20112;-77
2022/12/17 20:21:02;;;;;;;1999.90;999.90;;;-7.60;99.90;;;;;;4956699;28;20051;-77
2022/12/17 20:23:28;;;;;;;1999.90;999.90;;;-7.60;99.90;;;;;;4958841;28;20472;-77
2022/12/17 20:26:05;;;;;;;1999.90;999.90;;;-7.50;99.90;;;;;;4958872;28;20046;-77
2022/12/17 20:28:32;;;;;;;1999.90;999.90;;;-7.50;99.90;;;;;;4958873;28;20047;-77
2022/12/17 20:30:59;;;;;;;1999.90;999.90;;;-7.50;99.90;;;;;;4957584;28;20210;-77
2022/12/17 20:33:24;;;;;;;1999.90;999.90;;;-7.50;99.90;;;;;;4957816;28;20404;-77
2022/12/17 20:35:50;;;;;;;1999.90;999.90;;;-7.60;99.90;;;;;;4958324;28;20045;-77
2022/12/17 20:38:16;;;;;;;1999.90;999.90;;;-7.70;99.90;;;;;;4959418;28;20868;-78
2022/12/17 20:40:41;;;;;;;1999.90;999.90;;;-7.60;99.90;;;;;;4958487;28;20079;-78
2022/12/17 20:43:07;;;;;;;1999.90;999.90;;;-7.60;99.90;;;;;;4958329;28;20032;-78
2022/12/17 20:45:33;;;;;;;1999.90;999.90;;;-7.60;99.90;;;;;;4959820;28;20450;-78
2022/12/17 20:47:58;;;;;;;1999.90;999.90;;;-7.60;99.90;;;;;;4958473;28;20794;-77
2022/12/17 20:50:24;;;;;;;1999.90;999.90;;;-7.50;99.90;;;;;;4957039;28;20452;-78
2022/12/17 20:52:50;;;;;;;1999.90;999.90;;;-7.50;99.90;;;;;;4958245;28;20100;-77
2022/12/17 20:55:15;;;;;;;1999.90;999.90;;;-7.60;99.90;;;;;;4958068;28;20123;-77
2022/12/17 20:57:42;;;;;;;1999.90;999.90;;;-7.60;99.90;;;;;;4958302;28;20035;-79
2022/12/17 21:00:10;;;;;;;1999.90;999.90;;;-7.60;99.90;;;;;;4957892;28;20071;-77
2022/12/17 21:02:35;;;;;;;1999.90;999.90;;;-7.60;99.90;;;;;;4956796;28;20036;-78
2022/12/17 21:05:02;;;;;;;1999.90;999.90;;;-7.60;99.90;;;;;;4958059;28;21019;-78
2022/12/17 21:07:28;;;;;;;1999.90;999.90;;;-7.60;99.90;;;;;;4958157;28;20091;-77
2022/12/17 21:09:54;;;;;;;1999.90;999.90;;;-7.60;99.90;;;;;;4957826;28;20540;-78
2022/12/17 21:12:19;;;;;;;1999.90;999.90;;;-7.60;99.90;;;;;;4956437;28;20048;-77
2022/12/17 21:14:45;;;;;;;1999.90;999.90;;;-7.60;99.90;;;;;;4956389;28;20031;-77
2022/12/17 21:17:10;;;;;;;1999.90;999.90;;;-7.60;99.90;;;;;;4955835;28;20114;-78
2022/12/17 21:19:36;;;;;;;1999.90;999.90;;;-7.60;99.90;;;;;;4957747;28;20450;-77
2022/12/17 21:22:02;;;;;;;1999.90;999.90;;;-7.60;99.90;;;;;;4957352;28;20035;-77
2022/12/17 21:24:27;;;;;;;1999.90;999.90;;;-7.70;99.90;;;;;;4957714;28;20843;-77
2022/12/17 21:26:53;;;;;;;1999.90;999.90;;;-7.80;99.90;;;;;;4958358;28;20067;-82
2022/12/17 21:29:18;;;;;;;1999.90;999.90;;;-7.70;99.90;;;;;;4963996;28;20027;-78
2022/12/17 21:31:47;;;;;;;1999.90;999.90;;;-7.70;99.90;;;;;;4982315;28;20023;-78
2022/12/17 21:34:17;;;;;;;1999.90;999.90;;;-7.80;99.90;;;;;;4978282;28;20047;-77
2022/12/17 21:36:42;;;;;;;1999.90;999.90;;;-8.00;99.90;;;;;;4957786;28;20035;-78
2022/12/17 21:39:10;;;;;;;1999.90;999.90;;;-8.00;99.90;;;;;;4957408;28;20039;-78
2022/12/17 21:41:38;;;;;;;1999.90;999.90;;;-7.90;99.90;;;;;;4955686;28;20035;-78
2022/12/17 21:44:07;;;;;;;1999.90;999.90;;;-8.10;99.90;;;;;;4957087;28;20560;-77
2022/12/17 21:46:33;;;;;;;1999.90;999.90;;;-7.90;99.90;;;;;;4957162;28;20039;-78
2022/12/17 21:49:01;;;;;;;1999.90;999.90;;;-8.00;99.90;;;;;;4957164;28;20027;-78
2022/12/17 21:51:28;;;;;;;1999.90;999.90;;;-7.90;99.90;;;;;;4957059;28;20040;-78
2022/12/17 21:53:56;;;;;;;1999.90;999.90;;;-7.80;99.90;;;;;;4955843;28;20036;-78
2022/12/17 21:56:22;;;;;;;1999.90;999.90;;;-7.80;99.90;;;;;;4955931;28;20525;-77
2022/12/17 21:58:49;;;;;;;1999.90;999.90;;;-7.90;99.90;;;;;;4955435;28;20035;-78
2022/12/17 22:01:24;;;;;;;1999.90;999.90;;;-8.00;99.90;;;;;;4956513;28;20066;-78
2022/12/17 22:03:51;;;;;;;1999.90;999.90;;;-8.10;99.90;;;;;;4956612;28;20032;-78
2022/12/17 22:06:19;;;;;;;1999.90;999.90;;;-8.10;99.90;;;;;;4955339;28;20036;-78
2022/12/17 22:08:46;;;;;;;1999.90;999.90;;;-8.10;99.90;;;;;;4972376;28;20044;-80
2022/12/17 22:11:14;;;;;;;1999.90;999.90;;;-8.00;99.90;;;;;;4971046;28;20035;-79
2022/12/17 22:16:26;;;;;;;1999.90;999.90;;;-8.20;99.90;;;;;;4965781;28;20067;-79
2022/12/17 22:18:52;;;;;;;1999.90;999.90;;;-8.30;99.90;;;;;;4956635;28;20110;-79
2022/12/17 22:21:19;;;;;;;1999.90;999.90;;;-8.30;99.90;;;;;;4957659;28;20040;-78
2022/12/17 22:23:46;;;;;;;1999.90;999.90;;;-8.30;99.90;;;;;;4956973;28;20027;-79
2022/12/17 22:26:14;;;;;;;1999.90;999.90;;;-8.30;99.90;;;;;;4956806;28;20366;-78
2022/12/17 22:28:39;;;;;;;1999.90;999.90;;;-8.30;99.90;;;;;;4956799;28;20541;-78
2022/12/17 22:33:57;;;;;;;1999.90;999.90;;;-8.10;99.90;;;;;;4957376;28;20039;-78
2022/12/17 22:36:23;;;;;;;1999.90;999.90;;;-8.00;99.90;;;;;;4955757;28;20048;-78
2022/12/17 22:38:48;;;;;;;1999.90;999.90;;;-7.90;99.90;;;;;;4956636;28;20127;-78
2022/12/17 22:43:28;;;;;;;1999.90;999.90;;;-8.00;99.90;;;;;;4956301;28;20043;-78
2022/12/17 22:44:01;;;;;;;1999.90;999.90;;;-8.00;99.90;;;;;;4956167;28;20035;-78
2022/12/17 22:46:28;;;;;;;1999.90;999.90;;;-8.10;99.90;;;;;;4954644;28;20458;-77
2022/12/17 22:48:56;;;;;;;1999.90;999.90;;;-8.00;99.90;;;;;;4958006;28;20067;-79
2022/12/17 22:51:22;;;;;;;1999.90;999.90;;;-8.10;99.90;;;;;;4956067;28;20043;-78
2022/12/17 22:53:48;;;;;;;1999.90;999.90;;;-8.10;99.90;;;;;;4956359;28;20489;-78
2022/12/17 22:56:14;;;;;;;1999.90;999.90;;;-8.10;99.90;;;;;;4955996;28;20031;-78
2022/12/17 22:58:39;;;;;;;1999.90;999.90;;;-8.20;99.90;;;;;;4956232;28;20119;-78
2022/12/17 23:01:05;;;;;;;1999.90;999.90;;;-8.20;99.90;;;;;;4956100;28;20036;-78
2022/12/17 23:03:30;;;;;;;1999.90;999.90;;;-8.20;99.90;;;;;;4956310;28;20042;-78
2022/12/17 23:06:16;;;;;;;1999.90;999.90;;;-8.20;99.90;;;;;;4955813;28;20044;-78
2022/12/17 23:08:43;;;;;;;1999.90;999.90;;;-8.10;99.90;;;;;;4956376;28;20047;-78
2022/12/17 23:11:24;;;;;;;1999.90;999.90;;;-8.10;99.90;;;;;;4955940;28;20426;-78
2022/12/17 23:13:51;;;;;;;1999.90;999.90;;;-8.10;99.90;;;;;;4955022;28;20038;-78
2022/12/17 23:16:17;;;;;;;1999.90;999.90;;;-8.00;99.90;;;;;;4954346;28;20031;-78
2022/12/17 23:18:44;;;;;;;1999.90;999.90;;;-8.10;99.90;;;;;;4954585;28;20043;-78
2022/12/17 23:21:16;;;;;;;1999.90;999.90;;;-8.10;99.90;;;;;;4955744;28;20100;-78
2022/12/17 23:23:42;;;;;;;1999.90;999.90;;;-8.10;99.90;;;;;;4954839;28;20852;-78
2022/12/17 23:26:09;;;;;;;1999.90;999.90;;;-8.10;99.90;;;;;;4955554;28;20115;-78
2022/12/17 23:28:38;;;;;;;1999.90;999.90;;;-8.20;99.90;;;;;;4955933;28;20047;-77
2022/12/17 23:31:11;;;;;;;1999.90;999.90;;;-8.10;99.90;;;;;;4955352;28;20044;-78
2022/12/17 23:33:36;;;;;;;1999.90;999.90;;;-8.30;99.90;;;;;;4954440;28;20119;-78
2022/12/17 23:36:05;;;;;;;1999.90;999.90;;;-8.20;99.90;;;;;;4954241;28;20126;-78
2022/12/17 23:38:30;;;;;;;1999.90;999.90;;;-8.30;99.90;;;;;;4954294;28;20031;-77
2022/12/17 23:41:05;;;;;;;1999.90;999.90;;;-8.20;99.90;;;;;;4954292;28;20414;-78
2022/12/17 23:43:30;;;;;;;1999.90;999.90;;;-8.20;99.90;;;;;;4954193;28;20476;-78
2022/12/17 23:45:56;;;;;;;1999.90;999.90;;;-8.30;99.90;;;;;;4953993;28;20050;-77
2022/12/17 23:48:21;;;;;;;1999.90;999.90;;;-8.20;99.90;;;;;;4957722;28;20102;-77
2022/12/17 23:50:47;;;;;;;1999.90;999.90;;;-8.40;99.90;;;;;;4958772;28;20132;-77
2022/12/17 23:53:12;;;;;;;1999.90;999.90;;;-8.40;99.90;;;;;;4958915;28;20485;-78
2022/12/17 23:55:38;;;;;;;1999.90;999.90;;;-8.40;99.90;;;;;;4958747;28;20402;-77
2022/12/17 23:58:03;;;;;;;1999.90;999.90;;;-8.30;99.90;;;;;;4958896;28;20047;-77
